createdAt,value
2019-06-07T00:01:55.058Z,68.36
2019-06-07T00:04:59.276Z,68.41
2019-06-07T00:08:07.819Z,68.62
2019-06-07T00:11:11.052Z,68.77
2019-06-07T00:14:16.654Z,68.90
2019-06-07T00:17:21.280Z,69.07
2019-06-07T00:20:25.228Z,69.36
2019-06-07T00:23:29.459Z,69.51
2019-06-07T00:26:33.781Z,69.70
2019-06-07T00:29:38.202Z,70.08
2019-06-07T00:32:42.297Z,70.21
2019-06-07T00:35:46.278Z,70.32
2019-06-07T00:38:50.454Z,70.12
2019-06-07T00:41:54.784Z,70.15
2019-06-07T00:44:58.875Z,70.12
2019-06-07T00:48:02.774Z,70.08
2019-06-07T00:51:07.007Z,70.09
2019-06-07T00:54:12.408Z,70.36
2019-06-07T00:57:19.351Z,70.46
2019-06-07T01:00:25.502Z,70.61
2019-06-07T01:03:29.015Z,70.32
2019-06-07T01:06:33.011Z,70.10
2019-06-07T01:09:37.143Z,69.92
2019-06-07T01:12:41.143Z,69.80
2019-06-07T01:15:45.079Z,69.71
2019-06-07T01:18:51.290Z,69.75
2019-06-07T01:21:54.821Z,69.77
2019-06-07T01:24:59.001Z,70.17
2019-06-07T01:28:03.159Z,70.64
2019-06-07T01:31:07.341Z,70.90
2019-06-07T01:34:11.580Z,71.37
2019-06-07T01:37:16.871Z,71.57
2019-06-07T01:40:27.746Z,71.72
2019-06-07T01:43:30.467Z,71.98
2019-06-07T01:46:33.291Z,72.41
2019-06-07T01:49:37.458Z,73.44
2019-06-07T01:52:42.069Z,73.31
2019-06-07T01:55:46.283Z,73.42
2019-06-07T01:58:50.322Z,73.04
2019-06-07T02:01:54.518Z,73.33
2019-06-07T02:04:58.430Z,73.12
2019-06-07T02:08:02.606Z,73.68
2019-06-07T02:11:06.609Z,73.45
2019-06-07T02:14:10.886Z,73.57
2019-06-07T02:17:15.317Z,73.28
2019-06-07T02:20:20.356Z,73.75
2019-06-07T02:23:29.204Z,73.53
2019-06-07T02:26:32.527Z,73.82
2019-06-07T02:29:36.565Z,74.13
2019-06-07T02:32:41.038Z,74.47
2019-06-07T02:35:44.894Z,74.77
2019-06-07T02:38:49.065Z,74.59
2019-06-07T02:41:53.274Z,74.19
2019-06-07T02:44:57.521Z,74.04
2019-06-07T02:48:01.607Z,74.48
2019-06-07T02:51:05.452Z,74.35
2019-06-07T02:54:09.620Z,74.00
2019-06-07T02:57:14.034Z,74.17
2019-06-07T03:01:06.827Z,74.46
2019-06-07T03:04:00.322Z,74.07
2019-06-07T03:07:04.507Z,73.85
2019-06-07T03:10:10.533Z,74.00
2019-06-07T03:13:19.886Z,73.82
2019-06-07T03:16:31.200Z,73.62
2019-06-07T03:19:39.648Z,73.29
2019-06-07T03:22:44.009Z,73.30
2019-06-07T03:25:51.046Z,73.26
2019-06-07T03:28:55.957Z,73.14
2019-06-07T03:32:00.092Z,73.41
2019-06-07T03:35:04.575Z,73.71
2019-06-07T03:38:08.737Z,73.64
2019-06-07T03:41:13.032Z,73.32
2019-06-07T03:44:16.928Z,73.06
2019-06-07T03:47:21.119Z,73.00
2019-06-07T03:50:25.231Z,73.03
2019-06-07T03:53:30.497Z,73.08
2019-06-07T03:56:36.021Z,73.06
2019-06-07T03:59:41.581Z,73.17
2019-06-07T04:02:46.253Z,73.60
2019-06-07T04:05:50.550Z,73.44
2019-06-07T04:08:55.243Z,72.91
2019-06-07T04:11:59.741Z,72.64
2019-06-07T04:15:18.310Z,72.55
2019-06-07T04:18:23.349Z,72.42
2019-06-07T04:21:29.659Z,71.68
2019-06-07T04:24:34.668Z,71.66
2019-06-07T04:27:41.098Z,71.50
2019-06-07T04:30:46.039Z,71.18
2019-06-07T04:33:50.764Z,70.76
2019-06-07T04:36:59.467Z,70.57
2019-06-07T04:40:03.721Z,70.72
2019-06-07T04:43:08.306Z,70.48
2019-06-07T04:46:13.166Z,70.37
2019-06-07T04:49:20.499Z,69.97
2019-06-07T04:52:27.549Z,70.14
2019-06-07T04:55:31.542Z,70.09
2019-06-07T04:58:38.139Z,70.33
2019-06-07T05:01:42.810Z,70.21
2019-06-07T05:04:46.728Z,70.00
2019-06-07T05:07:51.076Z,69.59
2019-06-07T05:10:54.996Z,69.23
2019-06-07T05:13:59.161Z,68.55
2019-06-07T05:17:03.329Z,68.09
2019-06-07T05:20:07.780Z,67.57
2019-06-07T05:23:59.400Z,67.32
2019-06-07T05:26:17.893Z,67.26
2019-06-07T05:29:21.908Z,67.45
2019-06-07T05:32:26.529Z,67.25
2019-06-07T05:35:33.082Z,67.70
2019-06-07T05:38:42.236Z,67.24
2019-06-07T05:41:44.411Z,67.29
2019-06-07T05:44:48.846Z,66.49
2019-06-07T05:47:53.058Z,65.81
2019-06-07T05:50:57.890Z,65.51
2019-06-07T05:54:02.382Z,65.26
2019-06-07T05:57:06.287Z,65.28
2019-06-07T06:00:10.285Z,64.90
2019-06-07T06:03:14.200Z,64.65
2019-06-07T06:06:18.987Z,64.90
2019-06-07T06:09:23.336Z,64.19
2019-06-07T06:12:35.482Z,63.50
2019-06-07T06:15:46.368Z,62.55
2019-06-07T06:18:40.549Z,62.09
2019-06-07T06:21:46.439Z,61.75
2019-06-07T06:25:29.950Z,62.02
2019-06-07T06:28:09.861Z,62.34
2019-06-07T06:31:01.792Z,61.18
2019-06-07T06:34:06.458Z,60.80
2019-06-07T06:37:10.664Z,60.71
2019-06-07T06:40:14.667Z,58.87
2019-06-07T06:43:18.662Z,56.90
2019-06-07T06:46:38.243Z,53.19
2019-06-07T06:49:28.999Z,51.65
2019-06-07T06:52:32.839Z,51.09
2019-06-07T06:55:36.788Z,48.79
2019-06-07T06:59:21.898Z,47.88
2019-06-07T07:01:49.409Z,52.08
2019-06-07T07:04:54.030Z,52.08
2019-06-07T07:07:58.515Z,54.42
2019-06-07T07:11:03.456Z,56.59
2019-06-07T07:14:07.632Z,57.00
2019-06-07T07:17:11.509Z,57.79
2019-06-07T07:20:15.674Z,57.93
2019-06-07T07:23:20.148Z,57.35
2019-06-07T07:26:24.042Z,56.92
2019-06-07T07:29:28.940Z,57.30
2019-06-07T07:32:33.141Z,57.37
2019-06-07T07:35:37.076Z,57.07
2019-06-07T07:38:41.279Z,55.37
2019-06-07T07:42:10.970Z,53.74
2019-06-07T07:44:55.099Z,54.14
2019-06-07T07:48:13.342Z,53.51
2019-06-07T07:51:03.640Z,53.18
2019-06-07T07:54:10.906Z,52.90
2019-06-07T07:57:13.342Z,53.90
2019-06-07T08:00:49.614Z,52.87
2019-06-07T08:03:24.054Z,52.87
2019-06-07T08:06:28.334Z,52.34
2019-06-07T08:09:32.240Z,53.60
2019-06-07T08:12:55.791Z,53.47
2019-06-07T08:15:42.053Z,53.69
2019-06-07T08:18:51.043Z,54.65
2019-06-07T08:21:53.074Z,54.65
2019-06-07T08:24:59.950Z,54.80
2019-06-07T08:28:03.251Z,54.29
2019-06-07T08:31:07.897Z,54.21
2019-06-07T08:34:12.058Z,54.10
2019-06-07T08:37:15.968Z,53.39
2019-06-07T08:40:20.763Z,53.89
2019-06-07T08:43:25.188Z,53.69
2019-06-07T08:46:29.110Z,53.85
2019-06-07T08:49:33.296Z,54.52
2019-06-07T08:52:38.096Z,55.03
2019-06-07T08:55:43.165Z,55.90
2019-06-07T08:58:47.391Z,55.72
2019-06-07T09:01:53.776Z,55.75
2019-06-07T09:05:03.158Z,56.06
2019-06-07T09:08:23.837Z,55.83
2019-06-07T09:11:11.113Z,56.10
2019-06-07T09:14:15.108Z,55.92
2019-06-07T09:17:19.031Z,56.24
2019-06-07T09:20:36.458Z,56.25
2019-06-07T09:23:30.009Z,55.85
2019-06-07T09:26:34.596Z,55.86
2019-06-07T09:29:39.472Z,56.24
2019-06-07T09:32:43.554Z,55.94
2019-06-07T09:35:47.541Z,55.48
2019-06-07T09:38:51.888Z,55.08
2019-06-07T09:41:56.515Z,54.76
2019-06-07T09:45:04.349Z,54.83
2019-06-07T09:48:13.602Z,54.52
2019-06-07T09:51:19.933Z,54.43
2019-06-07T09:57:25.593Z,54.51
2019-06-07T10:00:41.241Z,54.38
2019-06-07T10:03:35.422Z,54.34
2019-06-07T10:06:39.375Z,53.97
2019-06-07T10:10:25.619Z,53.75
2019-06-07T10:13:10.224Z,53.41
2019-06-07T10:16:14.305Z,52.82
2019-06-07T10:19:18.499Z,52.68
2019-06-07T10:22:22.427Z,52.34
2019-06-07T10:25:27.250Z,52.12
2019-06-07T10:28:31.544Z,52.08
2019-06-07T10:31:35.767Z,51.73
2019-06-07T10:34:39.701Z,51.49
2019-06-07T10:37:43.900Z,51.28
2019-06-07T10:40:47.980Z,51.13
2019-06-07T10:43:51.834Z,50.97
2019-06-07T10:46:59.130Z,50.77
2019-06-07T10:50:02.236Z,50.25
2019-06-07T10:53:06.519Z,50.04
2019-06-07T10:56:11.144Z,50.05
2019-06-07T10:59:15.030Z,50.04
2019-06-07T11:02:19.609Z,49.65
2019-06-07T11:05:24.036Z,49.25
2019-06-07T11:08:28.580Z,48.83
2019-06-07T11:11:32.779Z,48.54
2019-06-07T11:14:36.865Z,48.41
2019-06-07T11:17:41.115Z,48.39
2019-06-07T11:20:44.948Z,48.05
2019-06-07T11:23:48.937Z,47.85
2019-06-07T11:26:53.036Z,47.63
2019-06-07T11:29:56.871Z,47.64
2019-06-07T11:33:00.805Z,47.51
2019-06-07T11:36:04.890Z,47.10
2019-06-07T11:39:11.089Z,47.06
2019-06-07T11:42:15.536Z,46.95
2019-06-07T11:45:20.043Z,46.87
2019-06-07T11:48:24.278Z,46.75
2019-06-07T11:51:28.776Z,46.70
2019-06-07T11:54:33.404Z,46.86
2019-06-07T11:57:37.916Z,46.89
2019-06-07T12:00:42.216Z,46.39
2019-06-07T12:03:46.377Z,46.11
2019-06-07T12:06:50.663Z,46.11
2019-06-07T12:09:56.605Z,46.23
2019-06-07T12:13:01.693Z,46.13
2019-06-07T12:16:06.632Z,46.03
2019-06-07T12:19:11.944Z,46.17
2019-06-07T12:22:16.136Z,45.76
2019-06-07T12:25:24.826Z,45.53
2019-06-07T12:28:26.790Z,45.51
2019-06-07T12:31:31.670Z,45.21
2019-06-07T12:34:36.392Z,45.14
2019-06-07T12:37:44.366Z,44.91
2019-06-07T12:40:57.330Z,44.99
2019-06-07T12:43:51.849Z,44.83
2019-06-07T12:46:56.104Z,44.70
2019-06-07T12:50:00.324Z,44.50
2019-06-07T12:53:05.141Z,44.32
2019-06-07T12:56:09.002Z,44.16
2019-06-07T12:59:13.914Z,44.02
2019-06-07T13:02:20.029Z,43.86
2019-06-07T13:05:24.501Z,43.87
2019-06-07T13:08:28.725Z,43.87
2019-06-07T13:11:32.842Z,43.88
2019-06-07T13:14:36.680Z,43.72
2019-06-07T13:17:40.582Z,43.67
2019-06-07T13:20:45.119Z,43.46
2019-06-07T13:23:49.754Z,43.35
2019-06-07T13:26:53.899Z,43.36
2019-06-07T13:29:57.763Z,43.34
2019-06-07T13:33:01.849Z,43.51
2019-06-07T13:36:05.867Z,43.28
2019-06-07T13:39:10.308Z,42.95
2019-06-07T13:42:14.532Z,42.95
2019-06-07T13:45:20.011Z,42.62
2019-06-07T13:48:25.243Z,42.48
2019-06-07T13:51:29.191Z,42.38
2019-06-07T13:54:33.784Z,42.12
2019-06-07T13:57:37.987Z,41.83
2019-06-07T14:00:41.828Z,41.86
2019-06-07T14:03:46.228Z,41.88
2019-06-07T14:06:50.594Z,41.61
2019-06-07T14:09:54.745Z,41.66
2019-06-07T14:12:58.836Z,41.40
2019-06-07T14:16:02.975Z,41.30
2019-06-07T14:19:07.415Z,41.35
2019-06-07T14:22:11.546Z,40.76
2019-06-07T14:25:17.379Z,40.50
2019-06-07T14:28:24.579Z,40.28
2019-06-07T14:31:28.169Z,40.30
2019-06-07T14:34:33.105Z,40.29
2019-06-07T14:37:37.120Z,40.14
2019-06-07T14:40:41.084Z,39.72
2019-06-07T14:43:45.029Z,39.77
2019-06-07T14:46:49.917Z,39.77
2019-06-07T14:49:53.793Z,39.67
2019-06-07T14:52:58.088Z,39.63
2019-06-07T14:56:03.111Z,39.56
2019-06-07T14:59:07.445Z,39.40
2019-06-07T15:02:11.604Z,39.20
2019-06-07T15:05:15.960Z,39.28
2019-06-07T15:08:19.933Z,39.17
2019-06-07T15:11:24.094Z,38.87
2019-06-07T15:14:29.339Z,38.57
2019-06-07T15:17:33.814Z,38.61
2019-06-07T15:20:38.920Z,38.53
2019-06-07T15:23:43.528Z,38.33
2019-06-07T15:26:47.781Z,38.02
2019-06-07T15:29:51.974Z,38.54
2019-06-07T15:32:58.920Z,38.31
2019-06-07T15:36:01.769Z,37.81
2019-06-07T15:39:07.555Z,37.19
2019-06-07T15:42:11.821Z,37.15
2019-06-07T15:45:16.457Z,37.13
2019-06-07T15:48:20.381Z,37.62
2019-06-07T15:51:24.893Z,37.80
2019-06-07T15:54:28.744Z,37.87
2019-06-07T15:57:33.357Z,37.70
2019-06-07T16:00:37.662Z,37.47
2019-06-07T16:03:42.156Z,37.19
2019-06-07T16:06:46.710Z,37.55
2019-06-07T16:09:51.237Z,37.76
2019-06-07T16:13:00.491Z,38.16
2019-06-07T16:16:00.739Z,38.72
2019-06-07T16:19:04.729Z,38.92
2019-06-07T16:22:08.726Z,38.89
2019-06-07T16:25:13.185Z,38.69
2019-06-07T16:28:17.267Z,38.93
2019-06-07T16:31:21.429Z,40.39
2019-06-07T16:34:25.517Z,38.91
2019-06-07T16:37:29.996Z,38.92
2019-06-07T16:40:34.463Z,38.10
2019-06-07T16:43:38.661Z,37.81
2019-06-07T16:46:42.990Z,38.73
2019-06-07T16:49:47.063Z,39.32
2019-06-07T16:52:51.289Z,39.73
2019-06-07T16:55:55.257Z,38.93
2019-06-07T16:58:59.368Z,38.81
2019-06-07T17:02:03.403Z,38.50
2019-06-07T17:05:08.783Z,38.63
2019-06-07T17:08:12.961Z,38.71
2019-06-07T17:11:17.285Z,38.93
2019-06-07T17:14:21.439Z,38.54
2019-06-07T17:17:25.927Z,37.30
2019-06-07T17:20:30.088Z,36.57
2019-06-07T17:23:34.035Z,36.24
2019-06-07T17:26:39.418Z,36.19
2019-06-07T17:29:45.810Z,36.39
2019-06-07T17:32:57.620Z,36.56
2019-06-07T17:35:56.181Z,36.46
2019-06-07T17:39:00.280Z,37.05
2019-06-07T17:42:04.817Z,38.05
2019-06-07T17:45:10.054Z,39.05
2019-06-07T17:48:14.082Z,39.78
2019-06-07T17:51:17.999Z,40.36
2019-06-07T17:54:22.221Z,40.74
2019-06-07T17:57:26.426Z,41.18
2019-06-07T18:00:47.530Z,42.18
2019-06-07T18:03:53.224Z,43.34
2019-06-07T18:06:57.892Z,44.65
2019-06-07T18:10:03.153Z,45.18
2019-06-07T18:13:07.503Z,45.50
2019-06-07T18:16:11.647Z,45.55
2019-06-07T18:19:15.567Z,45.16
2019-06-07T18:22:19.854Z,44.92
2019-06-07T18:25:24.170Z,44.83
2019-06-07T18:28:28.258Z,44.65
2019-06-07T18:31:32.701Z,44.11
2019-06-07T18:34:37.051Z,43.81
2019-06-07T18:37:40.888Z,43.83
2019-06-07T18:40:45.054Z,43.38
2019-06-07T18:43:49.268Z,43.04
2019-06-07T18:46:54.397Z,43.38
2019-06-07T18:49:58.919Z,45.71
2019-06-07T18:53:02.808Z,46.92
2019-06-07T18:56:07.118Z,46.87
2019-06-07T18:59:10.958Z,46.61
2019-06-07T19:02:15.188Z,45.19
2019-06-07T19:05:20.270Z,45.14
2019-06-07T19:08:24.318Z,44.99
2019-06-07T19:11:28.526Z,44.81
2019-06-07T19:14:36.981Z,44.86
2019-06-07T19:17:38.596Z,44.98
2019-06-07T19:20:42.901Z,45.08
2019-06-07T19:23:46.851Z,45.20
2019-06-07T19:26:52.505Z,47.60
2019-06-07T19:29:56.863Z,52.13
2019-06-07T19:33:01.526Z,54.06
2019-06-07T19:36:05.829Z,54.88
2019-06-07T19:39:09.828Z,60.90
2019-06-07T19:42:13.989Z,60.90
2019-06-07T19:45:30.152Z,61.78
2019-06-07T19:48:24.469Z,61.82
2019-06-07T19:51:28.396Z,62.69
2019-06-07T19:54:32.387Z,62.64
2019-06-07T19:57:36.611Z,62.44
2019-06-07T20:00:40.484Z,69.66
2019-06-07T20:03:44.465Z,69.66
2019-06-07T20:06:48.970Z,70.15
2019-06-07T20:09:54.393Z,69.80
2019-06-07T20:12:58.773Z,69.17
2019-06-07T20:16:03.112Z,69.31
2019-06-07T20:19:09.057Z,69.48
2019-06-07T20:22:13.065Z,69.56
2019-06-07T20:25:17.752Z,70.40
2019-06-07T20:28:21.765Z,70.61
2019-06-07T20:31:26.011Z,71.20
2019-06-07T20:34:30.120Z,71.45
2019-06-07T20:37:34.184Z,71.28
2019-06-07T20:40:38.108Z,71.15
2019-06-07T20:43:41.970Z,71.33
2019-06-07T20:46:46.137Z,71.61
2019-06-07T20:49:49.993Z,71.14
2019-06-07T20:52:54.155Z,71.12
2019-06-07T20:55:58.530Z,71.49
2019-06-07T20:59:02.852Z,71.48
2019-06-07T21:02:07.293Z,71.50
2019-06-07T21:05:11.231Z,71.56
2019-06-07T21:08:15.220Z,71.67
2019-06-07T21:11:19.383Z,72.17
2019-06-07T21:14:23.559Z,72.22
2019-06-07T21:17:27.824Z,72.51
2019-06-07T21:20:34.038Z,72.20
2019-06-07T21:23:38.086Z,71.35
2019-06-07T21:26:42.301Z,71.49
2019-06-07T21:29:46.241Z,72.32
2019-06-07T21:32:50.428Z,72.47
2019-06-07T21:35:54.640Z,73.38
2019-06-07T21:38:58.904Z,73.94
2019-06-07T21:42:04.226Z,74.18
2019-06-07T21:45:09.820Z,73.74
2019-06-07T21:48:14.548Z,72.90
2019-06-07T21:51:18.440Z,72.60
2019-06-07T21:54:22.625Z,72.26
2019-06-07T21:57:26.816Z,72.02
2019-06-07T22:01:18.208Z,72.11
2019-06-07T22:04:22.105Z,72.51
2019-06-07T22:07:26.561Z,73.02
2019-06-07T22:10:30.655Z,73.09
2019-06-07T22:13:34.504Z,73.22
2019-06-07T22:16:38.603Z,73.60
2019-06-07T22:19:42.709Z,73.90
2019-06-07T22:22:47.198Z,74.68
2019-06-07T22:25:51.436Z,75.47
2019-06-07T22:28:55.739Z,74.84
2019-06-07T22:32:00.266Z,74.35
2019-06-07T22:35:04.693Z,74.63
2019-06-07T22:38:10.205Z,74.48
2019-06-07T22:41:15.726Z,74.43
2019-06-07T22:44:20.094Z,74.32
2019-06-07T22:47:24.256Z,74.23
2019-06-07T22:50:28.346Z,74.35
2019-06-07T22:53:32.221Z,74.07
2019-06-07T22:56:41.204Z,74.39
2019-06-07T22:59:45.043Z,74.95
2019-06-07T23:02:48.916Z,75.34
2019-06-07T23:05:53.236Z,75.75
2019-06-07T23:08:57.635Z,76.14
2019-06-07T23:12:01.489Z,75.61
2019-06-07T23:15:05.724Z,75.51
2019-06-07T23:18:09.585Z,75.12
2019-06-07T23:21:13.821Z,75.06
2019-06-07T23:24:20.126Z,74.99
2019-06-07T23:27:23.840Z,75.17
2019-06-07T23:30:28.196Z,75.20
2019-06-07T23:33:32.362Z,75.36
2019-06-07T23:36:36.840Z,75.11
2019-06-07T23:39:41.102Z,75.22
2019-06-07T23:42:45.464Z,75.30
2019-06-07T23:45:49.709Z,75.22
2019-06-07T23:48:53.983Z,75.09
2019-06-07T23:51:58.353Z,75.37
2019-06-07T23:55:02.729Z,75.25
2019-06-07T23:58:06.906Z,75.22
